EXS43CE EGKK-LGRP
Flight info
| Callsign | EXS43CE |
|---|---|
| Flight time | 1h 41m |
| Altitude | 35000 |
| Route | MIMFO1M MIMFO Y312 DVR UL9 KONAN DCT KOK DCT REMBA DCT LIRSU DCT KRH DCT BATUB DCT TIRUL M738 NATAG DCT LORLO DCT BORMI DCT AKADO DCT IXONA DCT MINTU DCT INTIT/N0458F370 DCT POD DCT ENFAR DCT TALAS DCT TSL DCT MES UN139 LURUS UL995 CODIC CODIC2C |
| Aircraft | B738/M-SDE2E3FGHIRWXY/LB1 |
Departure
| Time | 2026-04-16 07:52 |
|---|---|
| Airport | London Gatwick Airport (EGKK) |
Arrival
| Time | 2026-04-16 09:33 |
|---|---|
| Airport | Rhodes International Airport "Diagoras" (LGRP) |
| Time | Latitude | Longitude | Altitude | Speed | Heading |
|---|---|---|---|---|---|
| 2026-04-16 07:29 | 51.15618 | -0.16680 | 214 ft | 0 kts | 167° |
| 2026-04-16 07:45 | 51.15640 | -0.16687 | 203 ft | 4 kts | 167° |
| 2026-04-16 07:45 | 51.15666 | -0.16695 | 214 ft | 4 kts | 181° |
| 2026-04-16 07:45 | 51.15688 | -0.16683 | 213 ft | 4 kts | 236° |
| 2026-04-16 07:45 | 51.15695 | -0.16659 | 215 ft | 0 kts | 257° |
| 2026-04-16 07:47 | 51.15693 | -0.16675 | 209 ft | 3 kts | 257° |
| 2026-04-16 07:48 | 51.15686 | -0.16722 | 211 ft | 6 kts | 257° |
| 2026-04-16 07:48 | 51.15675 | -0.16798 | 209 ft | 8 kts | 257° |
| 2026-04-16 07:48 | 51.15661 | -0.16898 | 213 ft | 10 kts | 258° |
| 2026-04-16 07:48 | 51.15644 | -0.17022 | 207 ft | 12 kts | 257° |
| 2026-04-16 07:49 | 51.15624 | -0.17165 | 205 ft | 14 kts | 258° |
| 2026-04-16 07:49 | 51.15601 | -0.17322 | 210 ft | 10 kts | 255° |
| 2026-04-16 07:49 | 51.15572 | -0.17329 | 206 ft | 4 kts | 177° |
| 2026-04-16 07:49 | 51.15541 | -0.17315 | 203 ft | 6 kts | 163° |
| 2026-04-16 07:50 | 51.15479 | -0.17287 | 208 ft | 12 kts | 167° |
| 2026-04-16 07:50 | 51.15389 | -0.17256 | 204 ft | 13 kts | 169° |
| 2026-04-16 07:50 | 51.15301 | -0.17225 | 205 ft | 13 kts | 163° |
| 2026-04-16 07:50 | 51.15221 | -0.17171 | 208 ft | 12 kts | 162° |
| 2026-04-16 07:51 | 51.15136 | -0.17153 | 207 ft | 12 kts | 169° |
| 2026-04-16 07:51 | 51.15067 | -0.17195 | 205 ft | 12 kts | 252° |
| 2026-04-16 07:51 | 51.15055 | -0.17268 | 215 ft | 31 kts | 257° |
| 2026-04-16 07:51 | 51.14945 | -0.18085 | 203 ft | 118 kts | 258° |
| 2026-04-16 07:52 | 51.14710 | -0.19745 | 325 ft | 182 kts | 254° |
| 2026-04-16 07:52 | 51.14426 | -0.21780 | 1193 ft | 191 kts | 257° |
| 2026-04-16 07:52 | 51.14585 | -0.23861 | 2363 ft | 195 kts | 291° |
| 2026-04-16 07:52 | 51.15497 | -0.25521 | 3054 ft | 213 kts | 321° |
| 2026-04-16 07:53 | 51.16987 | -0.26283 | 3365 ft | 243 kts | 354° |
| 2026-04-16 07:53 | 51.18631 | -0.25473 | 3909 ft | 257 kts | 34° |
| 2026-04-16 07:53 | 51.19703 | -0.23170 | 4551 ft | 265 kts | 73° |
| 2026-04-16 07:53 | 51.19757 | -0.20281 | 5223 ft | 262 kts | 109° |
| 2026-04-16 07:54 | 51.19148 | -0.17559 | 5974 ft | 261 kts | 114° |
| 2026-04-16 07:54 | 51.18516 | -0.14840 | 6623 ft | 266 kts | 113° |
| 2026-04-16 07:54 | 51.17937 | -0.11924 | 7030 ft | 286 kts | 107° |
| 2026-04-16 07:54 | 51.17560 | -0.08741 | 7715 ft | 295 kts | 99° |
| 2026-04-16 07:55 | 51.17421 | -0.05483 | 8513 ft | 300 kts | 92° |
| 2026-04-16 07:55 | 51.17474 | -0.02128 | 9318 ft | 305 kts | 88° |
| 2026-04-16 07:55 | 51.17670 | 0.01263 | 9949 ft | 309 kts | 85° |
| 2026-04-16 07:55 | 51.17964 | 0.04721 | 10465 ft | 321 kts | 82° |
| 2026-04-16 07:56 | 51.18329 | 0.08273 | 10938 ft | 333 kts | 81° |
| 2026-04-16 07:56 | 51.18744 | 0.11938 | 11586 ft | 338 kts | 80° |
| 2026-04-16 07:56 | 51.19189 | 0.15664 | 12291 ft | 342 kts | 79° |
| 2026-04-16 07:56 | 51.19646 | 0.19410 | 12979 ft | 347 kts | 79° |
| 2026-04-16 07:57 | 51.20109 | 0.23162 | 13630 ft | 351 kts | 79° |
| 2026-04-16 07:57 | 51.20585 | 0.27020 | 14219 ft | 356 kts | 79° |
| 2026-04-16 07:57 | 51.21069 | 0.30943 | 14831 ft | 361 kts | 79° |
| 2026-04-16 07:57 | 51.21556 | 0.34899 | 15448 ft | 366 kts | 79° |
| 2026-04-16 07:58 | 51.22041 | 0.38855 | 16065 ft | 370 kts | 79° |
| 2026-04-16 07:58 | 51.22537 | 0.42913 | 16693 ft | 375 kts | 78° |
| 2026-04-16 07:58 | 51.23025 | 0.47045 | 17307 ft | 380 kts | 81° |
| 2026-04-16 07:58 | 51.23185 | 0.51284 | 17920 ft | 384 kts | 94° |
| 2026-04-16 07:59 | 51.22918 | 0.55534 | 18473 ft | 387 kts | 98° |
| 2026-04-16 07:59 | 51.22570 | 0.59765 | 19042 ft | 391 kts | 99° |
| 2026-04-16 07:59 | 51.22199 | 0.64095 | 19630 ft | 395 kts | 99° |
| 2026-04-16 07:59 | 51.21828 | 0.68474 | 20214 ft | 399 kts | 99° |
| 2026-04-16 08:00 | 51.21464 | 0.72859 | 20782 ft | 403 kts | 99° |
| 2026-04-16 08:00 | 51.21101 | 0.77317 | 21358 ft | 407 kts | 99° |
| 2026-04-16 08:00 | 51.20737 | 0.81835 | 21935 ft | 411 kts | 99° |
| 2026-04-16 08:00 | 51.20372 | 0.86377 | 22496 ft | 415 kts | 99° |
| 2026-04-16 08:01 | 51.20009 | 0.90900 | 23041 ft | 418 kts | 99° |
| 2026-04-16 08:01 | 51.19637 | 0.95521 | 23656 ft | 422 kts | 98° |
| 2026-04-16 08:01 | 51.19257 | 1.00202 | 24078 ft | 426 kts | 99° |
| 2026-04-16 08:01 | 51.18874 | 1.04900 | 24504 ft | 429 kts | 99° |
| 2026-04-16 08:02 | 51.18485 | 1.09653 | 24945 ft | 431 kts | 99° |
| 2026-04-16 08:02 | 51.17699 | 1.19168 | 25775 ft | 437 kts | 99° |
| 2026-04-16 08:02 | 51.17297 | 1.24007 | 26185 ft | 440 kts | 99° |
| 2026-04-16 08:03 | 51.16897 | 1.28809 | 26592 ft | 443 kts | 99° |
| 2026-04-16 08:03 | 51.16486 | 1.33692 | 27022 ft | 445 kts | 99° |
| 2026-04-16 08:03 | 51.16113 | 1.38609 | 27427 ft | 447 kts | 97° |
| 2026-04-16 08:03 | 51.15845 | 1.43571 | 27794 ft | 450 kts | 95° |
| 2026-04-16 08:04 | 51.15533 | 1.50676 | 28350 ft | 454 kts | 95° |
| 2026-04-16 08:04 | 51.15087 | 1.60783 | 29080 ft | 459 kts | 95° |
| 2026-04-16 08:04 | 51.14591 | 1.71018 | 29791 ft | 464 kts | 96° |
| 2026-04-16 08:04 | 51.14068 | 1.81333 | 30426 ft | 469 kts | 96° |
| 2026-04-16 08:05 | 51.13530 | 1.91772 | 30943 ft | 474 kts | 95° |
| 2026-04-16 08:05 | 51.12987 | 2.02159 | 31585 ft | 479 kts | 95° |
| 2026-04-16 08:05 | 51.12420 | 2.12803 | 32086 ft | 485 kts | 95° |
| 2026-04-16 08:05 | 51.11840 | 2.23544 | 32586 ft | 489 kts | 95° |
| 2026-04-16 08:06 | 51.11243 | 2.34424 | 33031 ft | 494 kts | 95° |
| 2026-04-16 08:06 | 51.10638 | 2.45268 | 33512 ft | 496 kts | 95° |
| 2026-04-16 08:06 | 51.10015 | 2.56275 | 33917 ft | 501 kts | 95° |
| 2026-04-16 08:06 | 51.09249 | 2.67223 | 34281 ft | 504 kts | 103° |
| 2026-04-16 08:07 | 51.07351 | 2.78014 | 34686 ft | 504 kts | 108° |
| 2026-04-16 08:07 | 51.05291 | 2.88692 | 35031 ft | 506 kts | 108° |
| 2026-04-16 08:07 | 51.03248 | 2.99532 | 35231 ft | 511 kts | 108° |
| 2026-04-16 08:07 | 51.01256 | 3.10314 | 35222 ft | 519 kts | 107° |
| 2026-04-16 08:08 | 50.97142 | 3.32541 | 35196 ft | 521 kts | 107° |
| 2026-04-16 08:08 | 50.93053 | 3.54317 | 35188 ft | 511 kts | 108° |
| 2026-04-16 08:09 | 50.88977 | 3.75759 | 35210 ft | 505 kts | 108° |
| 2026-04-16 08:09 | 50.84889 | 3.97027 | 35236 ft | 512 kts | 108° |
| 2026-04-16 08:10 | 50.80653 | 4.18822 | 35221 ft | 520 kts | 108° |
| 2026-04-16 08:10 | 50.76396 | 4.40481 | 35185 ft | 515 kts | 108° |
| 2026-04-16 08:11 | 50.72152 | 4.61831 | 35205 ft | 505 kts | 108° |
| 2026-04-16 08:11 | 50.67917 | 4.82916 | 35225 ft | 505 kts | 108° |
| 2026-04-16 08:12 | 50.62741 | 5.03546 | 35236 ft | 513 kts | 118° |
| 2026-04-16 08:12 | 50.56411 | 5.23876 | 35210 ft | 516 kts | 117° |
| 2026-04-16 08:13 | 50.50285 | 5.44015 | 35195 ft | 506 kts | 117° |
| 2026-04-16 08:13 | 50.44206 | 5.63848 | 35216 ft | 499 kts | 117° |
| 2026-04-16 08:14 | 50.38141 | 5.83451 | 35244 ft | 506 kts | 117° |
| 2026-04-16 08:14 | 50.31909 | 6.03443 | 35210 ft | 515 kts | 117° |
| 2026-04-16 08:15 | 50.25607 | 6.23499 | 35193 ft | 509 kts | 117° |
| 2026-04-16 08:15 | 50.19409 | 6.43033 | 35185 ft | 499 kts | 119° |
| 2026-04-16 08:16 | 50.15389 | 6.51801 | 35209 ft | 492 kts | 133° |
| 2026-04-16 08:16 | 50.10884 | 6.59918 | 35181 ft | 493 kts | 133° |
| 2026-04-16 08:16 | 50.01923 | 6.76269 | 35219 ft | 503 kts | 133° |
| 2026-04-16 08:17 | 49.92856 | 6.92902 | 35211 ft | 506 kts | 132° |
| 2026-04-16 08:17 | 49.83796 | 7.09400 | 35204 ft | 497 kts | 133° |
| 2026-04-16 08:19 | 49.47823 | 7.73870 | 35210 ft | 496 kts | 133° |
| 2026-04-16 08:20 | 49.38896 | 7.89630 | 35226 ft | 485 kts | 133° |
| 2026-04-16 08:20 | 49.30082 | 8.05089 | 35261 ft | 484 kts | 134° |
| 2026-04-16 08:21 | 49.21136 | 8.20689 | 35239 ft | 492 kts | 134° |
| 2026-04-16 08:21 | 49.12022 | 8.36493 | 35240 ft | 494 kts | 134° |
| 2026-04-16 08:22 | 49.03010 | 8.52033 | 35232 ft | 486 kts | 134° |
| 2026-04-16 08:22 | 48.92937 | 8.65129 | 35250 ft | 471 kts | 150° |
| 2026-04-16 08:23 | 48.81988 | 8.76136 | 35264 ft | 477 kts | 149° |
| 2026-04-16 08:23 | 48.70889 | 8.87445 | 35237 ft | 480 kts | 149° |
| 2026-04-16 08:24 | 48.59797 | 8.98690 | 35249 ft | 480 kts | 149° |
| 2026-04-16 08:24 | 48.48713 | 9.09861 | 35246 ft | 480 kts | 150° |
| 2026-04-16 08:25 | 48.37585 | 9.21017 | 35242 ft | 479 kts | 150° |
| 2026-04-16 08:25 | 48.26487 | 9.32084 | 35239 ft | 477 kts | 150° |
| 2026-04-16 08:26 | 48.14012 | 9.44455 | 35278 ft | 476 kts | 150° |
| 2026-04-16 08:26 | 47.91929 | 9.66501 | 35281 ft | 475 kts | 149° |
| 2026-04-16 08:27 | 47.73781 | 9.85067 | 35277 ft | 474 kts | 149° |
| 2026-04-16 08:27 | 47.48394 | 10.10601 | 35280 ft | 473 kts | 149° |
| 2026-04-16 08:28 | 47.30216 | 10.28712 | 35275 ft | 472 kts | 149° |
| 2026-04-16 08:28 | 47.08329 | 10.50317 | 35254 ft | 471 kts | 149° |
| 2026-04-16 08:29 | 46.96534 | 10.57333 | 35287 ft | 461 kts | 169° |
| 2026-04-16 08:29 | 46.84119 | 10.62595 | 35241 ft | 464 kts | 165° |
| 2026-04-16 08:29 | 46.60153 | 10.76254 | 35160 ft | 467 kts | 154° |
| 2026-04-16 08:30 | 46.36986 | 10.93209 | 35165 ft | 465 kts | 156° |
| 2026-04-16 08:30 | 46.13651 | 11.09655 | 35175 ft | 465 kts | 156° |
| 2026-04-16 08:31 | 46.02483 | 11.18695 | 35118 ft | 471 kts | 139° |
| 2026-04-16 08:31 | 45.94755 | 11.33958 | 35191 ft | 470 kts | 126° |
| 2026-04-16 08:31 | 45.79050 | 11.63924 | 35147 ft | 471 kts | 128° |
| 2026-04-16 08:32 | 45.63266 | 11.93938 | 35166 ft | 469 kts | 127° |
| 2026-04-16 08:32 | 45.47572 | 12.23430 | 35176 ft | 468 kts | 127° |
| 2026-04-16 08:33 | 45.31858 | 12.52819 | 35169 ft | 466 kts | 124° |
| 2026-04-16 08:33 | 45.17849 | 12.83752 | 35165 ft | 464 kts | 122° |
| 2026-04-16 08:34 | 45.03608 | 13.14399 | 35157 ft | 463 kts | 122° |
| 2026-04-16 08:34 | 44.89490 | 13.44533 | 35157 ft | 461 kts | 121° |
| 2026-04-16 08:35 | 44.75821 | 13.74985 | 35146 ft | 458 kts | 118° |
| 2026-04-16 08:35 | 44.62606 | 14.05319 | 35115 ft | 455 kts | 119° |
| 2026-04-16 08:36 | 44.49261 | 14.35478 | 35125 ft | 452 kts | 119° |
| 2026-04-16 08:36 | 44.36035 | 14.65072 | 35119 ft | 448 kts | 118° |
| 2026-04-16 08:37 | 44.23792 | 14.95193 | 35121 ft | 444 kts | 115° |
| 2026-04-16 08:37 | 44.11745 | 15.25282 | 35119 ft | 444 kts | 116° |
| 2026-04-16 08:38 | 43.99669 | 15.55043 | 35106 ft | 444 kts | 116° |
| 2026-04-16 08:38 | 43.87462 | 15.84821 | 35100 ft | 445 kts | 118° |
| 2026-04-16 08:39 | 43.75058 | 16.14755 | 35099 ft | 447 kts | 118° |
| 2026-04-16 08:39 | 43.62599 | 16.44529 | 35072 ft | 451 kts | 120° |
| 2026-04-16 08:40 | 43.49887 | 16.74580 | 35090 ft | 454 kts | 120° |
| 2026-04-16 08:40 | 43.37126 | 17.04442 | 35111 ft | 456 kts | 120° |
| 2026-04-16 08:41 | 43.24127 | 17.34541 | 35112 ft | 458 kts | 121° |
| 2026-04-16 08:41 | 43.11065 | 17.64484 | 35101 ft | 458 kts | 122° |
| 2026-04-16 08:42 | 42.97885 | 17.94387 | 35097 ft | 457 kts | 122° |
| 2026-04-16 08:42 | 42.84782 | 18.23850 | 35084 ft | 456 kts | 122° |
| 2026-04-16 08:43 | 42.71523 | 18.53389 | 35071 ft | 455 kts | 122° |
| 2026-04-16 08:43 | 42.58285 | 18.82591 | 35050 ft | 456 kts | 123° |
| 2026-04-16 08:44 | 42.44868 | 19.11899 | 35054 ft | 456 kts | 123° |
| 2026-04-16 08:44 | 42.31388 | 19.40779 | 35058 ft | 456 kts | 124° |
| 2026-04-16 08:45 | 42.17565 | 19.69706 | 35055 ft | 458 kts | 124° |
| 2026-04-16 08:45 | 42.03728 | 19.98434 | 35080 ft | 458 kts | 125° |
| 2026-04-16 08:46 | 41.89773 | 20.27161 | 35104 ft | 457 kts | 125° |
| 2026-04-16 08:46 | 41.75847 | 20.55539 | 35111 ft | 457 kts | 125° |
| 2026-04-16 08:47 | 41.61894 | 20.83919 | 35120 ft | 455 kts | 126° |
| 2026-04-16 08:47 | 41.47882 | 21.12150 | 35132 ft | 454 kts | 126° |
| 2026-04-16 08:48 | 41.33982 | 21.39901 | 35137 ft | 452 kts | 126° |
| 2026-04-16 08:48 | 41.19965 | 21.67632 | 35150 ft | 451 kts | 127° |
| 2026-04-16 08:49 | 41.05938 | 21.95041 | 35118 ft | 448 kts | 128° |
| 2026-04-16 08:49 | 40.90815 | 22.21282 | 35133 ft | 445 kts | 129° |
| 2026-04-16 08:50 | 40.75861 | 22.47315 | 35125 ft | 446 kts | 130° |
| 2026-04-16 08:50 | 40.60837 | 22.73214 | 35126 ft | 446 kts | 130° |
| 2026-04-16 08:51 | 40.45652 | 22.99168 | 35129 ft | 446 kts | 131° |
| 2026-04-16 08:51 | 40.28664 | 23.22639 | 35118 ft | 447 kts | 136° |
| 2026-04-16 08:52 | 40.11439 | 23.46270 | 35130 ft | 448 kts | 135° |
| 2026-04-16 08:52 | 39.94147 | 23.69801 | 35104 ft | 447 kts | 136° |
| 2026-04-16 08:53 | 39.76947 | 23.93029 | 35109 ft | 447 kts | 136° |
| 2026-04-16 08:53 | 39.59695 | 24.16147 | 35095 ft | 446 kts | 136° |
| 2026-04-16 08:54 | 39.42405 | 24.39142 | 35070 ft | 443 kts | 136° |
| 2026-04-16 08:54 | 39.25093 | 24.61992 | 35071 ft | 443 kts | 136° |
| 2026-04-16 08:55 | 39.07842 | 24.84590 | 35039 ft | 443 kts | 137° |
| 2026-04-16 08:55 | 38.90447 | 25.07210 | 35025 ft | 443 kts | 137° |
| 2026-04-16 08:56 | 38.73154 | 25.29532 | 35003 ft | 444 kts | 137° |
| 2026-04-16 08:56 | 38.55655 | 25.51956 | 34994 ft | 444 kts | 137° |
| 2026-04-16 08:57 | 38.46926 | 25.63079 | 34993 ft | 444 kts | 137° |
| 2026-04-16 08:57 | 38.42539 | 25.68654 | 34984 ft | 444 kts | 137° |
| 2026-04-16 08:58 | 38.38178 | 25.74188 | 34992 ft | 445 kts | 137° |
| 2026-04-16 08:58 | 38.33772 | 25.79769 | 34984 ft | 445 kts | 137° |
| 2026-04-16 08:59 | 38.29391 | 25.85310 | 34985 ft | 445 kts | 137° |
| 2026-04-16 08:59 | 38.24642 | 25.90370 | 34992 ft | 441 kts | 150° |
| 2026-04-16 09:00 | 38.19100 | 25.93507 | 34998 ft | 438 kts | 162° |
| 2026-04-16 09:00 | 38.13308 | 25.96058 | 34984 ft | 439 kts | 162° |
| 2026-04-16 09:01 | 38.04723 | 25.99895 | 34980 ft | 438 kts | 162° |
| 2026-04-16 09:02 | 37.98975 | 26.02496 | 34982 ft | 438 kts | 162° |
| 2026-04-16 09:02 | 37.93251 | 26.05085 | 34981 ft | 437 kts | 162° |
| 2026-04-16 09:03 | 37.87501 | 26.07682 | 34985 ft | 437 kts | 162° |
| 2026-04-16 09:03 | 37.81787 | 26.10256 | 34979 ft | 436 kts | 162° |
| 2026-04-16 09:04 | 37.76100 | 26.12815 | 34984 ft | 436 kts | 162° |
| 2026-04-16 09:04 | 37.70377 | 26.15391 | 34982 ft | 435 kts | 162° |
| 2026-04-16 09:05 | 37.64695 | 26.17955 | 34979 ft | 435 kts | 162° |
| 2026-04-16 09:05 | 37.58972 | 26.20533 | 34974 ft | 435 kts | 162° |
| 2026-04-16 09:06 | 37.53300 | 26.23084 | 34972 ft | 435 kts | 162° |
| 2026-04-16 09:06 | 37.47589 | 26.25648 | 34978 ft | 435 kts | 162° |
| 2026-04-16 09:07 | 37.41868 | 26.28212 | 34969 ft | 435 kts | 163° |
| 2026-04-16 09:07 | 37.36178 | 26.30758 | 34971 ft | 436 kts | 163° |
| 2026-04-16 09:08 | 37.30461 | 26.33312 | 34967 ft | 436 kts | 163° |
| 2026-04-16 09:08 | 37.24721 | 26.35874 | 34965 ft | 437 kts | 163° |
| 2026-04-16 09:09 | 37.19018 | 26.38413 | 34960 ft | 437 kts | 163° |
| 2026-04-16 09:09 | 37.13285 | 26.40949 | 34860 ft | 438 kts | 163° |
| 2026-04-16 09:09 | 37.10381 | 26.42231 | 34315 ft | 438 kts | 163° |
| 2026-04-16 09:10 | 37.07515 | 26.43498 | 33572 ft | 436 kts | 162° |
| 2026-04-16 09:10 | 37.04682 | 26.44748 | 32792 ft | 436 kts | 162° |
| 2026-04-16 09:10 | 37.01811 | 26.46015 | 32022 ft | 436 kts | 162° |
| 2026-04-16 09:10 | 36.98935 | 26.47283 | 31235 ft | 437 kts | 162° |
| 2026-04-16 09:11 | 36.96051 | 26.48553 | 30428 ft | 438 kts | 162° |
| 2026-04-16 09:11 | 36.93197 | 26.49827 | 29537 ft | 440 kts | 159° |
| 2026-04-16 09:11 | 36.90520 | 26.51722 | 28574 ft | 444 kts | 143° |
| 2026-04-16 09:11 | 36.88363 | 26.54412 | 28021 ft | 440 kts | 131° |
| 2026-04-16 09:12 | 36.86693 | 26.57595 | 27354 ft | 441 kts | 118° |
| 2026-04-16 09:12 | 36.85490 | 26.61226 | 26429 ft | 462 kts | 114° |
| 2026-04-16 09:12 | 36.84316 | 26.64976 | 25435 ft | 467 kts | 114° |
| 2026-04-16 09:12 | 36.83078 | 26.68719 | 24735 ft | 459 kts | 115° |
| 2026-04-16 09:13 | 36.81827 | 26.72375 | 24031 ft | 453 kts | 115° |
| 2026-04-16 09:13 | 36.80602 | 26.75927 | 23314 ft | 447 kts | 115° |
| 2026-04-16 09:13 | 36.79378 | 26.79467 | 22515 ft | 441 kts | 115° |
| 2026-04-16 09:13 | 36.78172 | 26.82957 | 21805 ft | 434 kts | 115° |
| 2026-04-16 09:14 | 36.76982 | 26.86402 | 21090 ft | 428 kts | 115° |
| 2026-04-16 09:14 | 36.75825 | 26.89749 | 20389 ft | 423 kts | 115° |
| 2026-04-16 09:14 | 36.74666 | 26.93105 | 19709 ft | 418 kts | 115° |
| 2026-04-16 09:14 | 36.73515 | 26.96433 | 19035 ft | 414 kts | 115° |
| 2026-04-16 09:15 | 36.72376 | 26.99724 | 18359 ft | 410 kts | 115° |
| 2026-04-16 09:15 | 36.71262 | 27.02939 | 17628 ft | 406 kts | 115° |
| 2026-04-16 09:15 | 36.70144 | 27.06164 | 16919 ft | 401 kts | 115° |
| 2026-04-16 09:15 | 36.69041 | 27.09341 | 16254 ft | 396 kts | 115° |
| 2026-04-16 09:16 | 36.67952 | 27.12475 | 15578 ft | 390 kts | 115° |
| 2026-04-16 09:16 | 36.66891 | 27.15521 | 15031 ft | 383 kts | 115° |
| 2026-04-16 09:16 | 36.65831 | 27.18553 | 14398 ft | 379 kts | 115° |
| 2026-04-16 09:16 | 36.64780 | 27.21555 | 13781 ft | 375 kts | 115° |
| 2026-04-16 09:17 | 36.63749 | 27.24499 | 13089 ft | 372 kts | 115° |
| 2026-04-16 09:17 | 36.62720 | 27.27436 | 12439 ft | 368 kts | 115° |
| 2026-04-16 09:17 | 36.61701 | 27.30340 | 11807 ft | 364 kts | 115° |
| 2026-04-16 09:17 | 36.60689 | 27.33224 | 11186 ft | 361 kts | 115° |
| 2026-04-16 09:18 | 36.59700 | 27.36042 | 11032 ft | 345 kts | 115° |
| 2026-04-16 09:18 | 36.58766 | 27.38703 | 10877 ft | 332 kts | 115° |
| 2026-04-16 09:18 | 36.57856 | 27.41291 | 10725 ft | 319 kts | 115° |
| 2026-04-16 09:18 | 36.56978 | 27.43783 | 10599 ft | 308 kts | 115° |
| 2026-04-16 09:19 | 36.56144 | 27.46151 | 10468 ft | 297 kts | 115° |
| 2026-04-16 09:19 | 36.55327 | 27.48466 | 10345 ft | 287 kts | 115° |
| 2026-04-16 09:19 | 36.54535 | 27.50709 | 10227 ft | 278 kts | 115° |
| 2026-04-16 09:19 | 36.53769 | 27.52877 | 10110 ft | 269 kts | 115° |
| 2026-04-16 09:20 | 36.53028 | 27.54973 | 10003 ft | 261 kts | 115° |
| 2026-04-16 09:20 | 36.52549 | 27.56329 | 9932 ft | 255 kts | 115° |
| 2026-04-16 09:20 | 36.51602 | 27.59002 | 9588 ft | 253 kts | 115° |
| 2026-04-16 09:20 | 36.51132 | 27.60328 | 9404 ft | 252 kts | 115° |
| 2026-04-16 09:21 | 36.50423 | 27.62327 | 9139 ft | 251 kts | 115° |
| 2026-04-16 09:21 | 36.49722 | 27.64306 | 8868 ft | 249 kts | 115° |
| 2026-04-16 09:21 | 36.49022 | 27.66279 | 8595 ft | 248 kts | 115° |
| 2026-04-16 09:21 | 36.48331 | 27.68224 | 8329 ft | 247 kts | 115° |
| 2026-04-16 09:22 | 36.47639 | 27.70170 | 8057 ft | 246 kts | 114° |
| 2026-04-16 09:22 | 36.46945 | 27.72126 | 7796 ft | 245 kts | 113° |
| 2026-04-16 09:22 | 36.46579 | 27.74185 | 7502 ft | 246 kts | 91° |
| 2026-04-16 09:22 | 36.46617 | 27.76312 | 7243 ft | 246 kts | 90° |
| 2026-04-16 09:23 | 36.46700 | 27.78404 | 6974 ft | 246 kts | 85° |
| 2026-04-16 09:23 | 36.46919 | 27.80516 | 6709 ft | 246 kts | 83° |
| 2026-04-16 09:23 | 36.47158 | 27.82629 | 6444 ft | 246 kts | 83° |
| 2026-04-16 09:23 | 36.47395 | 27.84711 | 6171 ft | 245 kts | 83° |
| 2026-04-16 09:24 | 36.47631 | 27.86814 | 5891 ft | 245 kts | 83° |
| 2026-04-16 09:24 | 36.47862 | 27.88914 | 5622 ft | 244 kts | 83° |
| 2026-04-16 09:24 | 36.48089 | 27.90999 | 5359 ft | 244 kts | 83° |
| 2026-04-16 09:24 | 36.48311 | 27.93091 | 5095 ft | 243 kts | 83° |
| 2026-04-16 09:25 | 36.48524 | 27.95155 | 4836 ft | 243 kts | 83° |
| 2026-04-16 09:25 | 36.48735 | 27.97241 | 4566 ft | 243 kts | 83° |
| 2026-04-16 09:25 | 36.48942 | 27.99336 | 4282 ft | 243 kts | 83° |
| 2026-04-16 09:25 | 36.49143 | 28.01419 | 4068 ft | 240 kts | 83° |
| 2026-04-16 09:26 | 36.49333 | 28.03425 | 3968 ft | 232 kts | 83° |
| 2026-04-16 09:26 | 36.49515 | 28.05368 | 3875 ft | 219 kts | 83° |
| 2026-04-16 09:26 | 36.49686 | 28.07207 | 3759 ft | 207 kts | 83° |
| 2026-04-16 09:26 | 36.49851 | 28.08906 | 3659 ft | 194 kts | 83° |
| 2026-04-16 09:27 | 36.50017 | 28.10559 | 3584 ft | 189 kts | 83° |
| 2026-04-16 09:27 | 36.50176 | 28.12129 | 3490 ft | 183 kts | 83° |
| 2026-04-16 09:27 | 36.50338 | 28.13719 | 3376 ft | 185 kts | 83° |
| 2026-04-16 09:27 | 36.50501 | 28.15324 | 3265 ft | 189 kts | 83° |
| 2026-04-16 09:28 | 36.50665 | 28.16959 | 3149 ft | 190 kts | 83° |
| 2026-04-16 09:28 | 36.50826 | 28.18569 | 3028 ft | 188 kts | 83° |
| 2026-04-16 09:28 | 36.50984 | 28.20182 | 2888 ft | 187 kts | 83° |
| 2026-04-16 09:28 | 36.51132 | 28.21773 | 2766 ft | 188 kts | 84° |
| 2026-04-16 09:29 | 36.50923 | 28.23371 | 2619 ft | 191 kts | 119° |
| 2026-04-16 09:29 | 36.49975 | 28.24427 | 2449 ft | 183 kts | 159° |
| 2026-04-16 09:29 | 36.48745 | 28.24561 | 2285 ft | 173 kts | 184° |
| 2026-04-16 09:29 | 36.47538 | 28.24434 | 2093 ft | 174 kts | 187° |
| 2026-04-16 09:30 | 36.46381 | 28.24065 | 1950 ft | 174 kts | 201° |
| 2026-04-16 09:30 | 36.45397 | 28.23296 | 1921 ft | 160 kts | 234° |
| 2026-04-16 09:30 | 36.44907 | 28.22149 | 1919 ft | 147 kts | 244° |
| 2026-04-16 09:30 | 36.44445 | 28.21022 | 1760 ft | 145 kts | 246° |
| 2026-04-16 09:31 | 36.44060 | 28.19899 | 1588 ft | 142 kts | 250° |
| 2026-04-16 09:31 | 36.43695 | 28.18760 | 1378 ft | 142 kts | 250° |
| 2026-04-16 09:31 | 36.43299 | 28.17643 | 1182 ft | 139 kts | 246° |
| 2026-04-16 09:31 | 36.42888 | 28.16550 | 1037 ft | 141 kts | 248° |
| 2026-04-16 09:32 | 36.42535 | 28.15412 | 870 ft | 137 kts | 250° |
| 2026-04-16 09:32 | 36.42200 | 28.14343 | 708 ft | 131 kts | 251° |
| 2026-04-16 09:32 | 36.41901 | 28.13283 | 530 ft | 127 kts | 251° |
| 2026-04-16 09:32 | 36.41593 | 28.12247 | 395 ft | 130 kts | 250° |
| 2026-04-16 09:33 | 36.41294 | 28.11202 | 214 ft | 129 kts | 250° |
| 2026-04-16 09:33 | 36.40991 | 28.10171 | 43 ft | 124 kts | 250° |
| 2026-04-16 09:33 | 36.40729 | 28.09267 | 29 ft | 92 kts | 251° |
| 2026-04-16 09:33 | 36.40571 | 28.08726 | 27 ft | 23 kts | 251° |
| 2026-04-16 09:34 | 36.40532 | 28.08636 | 27 ft | 11 kts | 219° |
| 2026-04-16 09:34 | 36.40473 | 28.08662 | 27 ft | 10 kts | 123° |
| 2026-04-16 09:34 | 36.40443 | 28.08740 | 27 ft | 10 kts | 115° |
| 2026-04-16 09:34 | 36.40411 | 28.08795 | 27 ft | 4 kts | 121° |
| 2026-04-16 09:35 | 36.40404 | 28.08831 | 27 ft | 6 kts | 98° |
| 2026-04-16 09:35 | 36.40398 | 28.08924 | 27 ft | 14 kts | 94° |
| 2026-04-16 09:35 | 36.40414 | 28.09049 | 27 ft | 15 kts | 72° |
| 2026-04-16 09:35 | 36.40441 | 28.09146 | 27 ft | 7 kts | 80° |
| 2026-04-16 09:36 | 36.40403 | 28.09174 | 27 ft | 7 kts | 160° |
| 2026-04-16 09:36 | 36.40381 | 28.09184 | 27 ft | 2 kts | 160° |
| 2026-04-16 09:36 | 36.40378 | 28.09185 | 27 ft | 0 kts | 160° |